sensor_id;sensor_type;location;lat;lon;timestamp;temperature;humidity
21425;DHT22;10873;51.132;16.848;2022-09-09T00:00:48;27.80;68.40
21425;DHT22;10873;51.132;16.848;2022-09-09T00:03:34;27.80;68.40
21425;DHT22;10873;51.132;16.848;2022-09-09T00:06:08;27.80;68.40
21425;DHT22;10873;51.132;16.848;2022-09-09T00:08:44;27.80;68.30
21425;DHT22;10873;51.132;16.848;2022-09-09T00:11:13;27.80;68.30
21425;DHT22;10873;51.132;16.848;2022-09-09T00:13:46;27.80;68.20
21425;DHT22;10873;51.132;16.848;2022-09-09T00:16:17;27.80;68.10
21425;DHT22;10873;51.132;16.848;2022-09-09T00:18:53;27.80;68.20
21425;DHT22;10873;51.132;16.848;2022-09-09T00:21:25;27.80;68.10
21425;DHT22;10873;51.132;16.848;2022-09-09T00:23:55;27.80;68.00
21425;DHT22;10873;51.132;16.848;2022-09-09T00:26:29;27.80;68.00
21425;DHT22;10873;51.132;16.848;2022-09-09T00:29:03;27.80;68.00
21425;DHT22;10873;51.132;16.848;2022-09-09T00:31:31;27.80;68.00
21425;DHT22;10873;51.132;16.848;2022-09-09T00:34:03;27.80;67.90
21425;DHT22;10873;51.132;16.848;2022-09-09T00:36:32;27.80;67.90
21425;DHT22;10873;51.132;16.848;2022-09-09T00:39:02;27.80;67.90
21425;DHT22;10873;51.132;16.848;2022-09-09T00:41:38;27.70;67.80
21425;DHT22;10873;51.132;16.848;2022-09-09T00:44:15;27.80;67.90
21425;DHT22;10873;51.132;16.848;2022-09-09T00:47:09;27.70;67.80
21425;DHT22;10873;51.132;16.848;2022-09-09T00:49:49;27.70;67.70
21425;DHT22;10873;51.132;16.848;2022-09-09T00:52:30;27.70;67.70
21425;DHT22;10873;51.132;16.848;2022-09-09T00:55:05;27.70;67.70
21425;DHT22;10873;51.132;16.848;2022-09-09T00:57:35;27.70;67.60
21425;DHT22;10873;51.132;16.848;2022-09-09T01:00:30;27.70;67.60
21425;DHT22;10873;51.132;16.848;2022-09-09T01:03:11;27.70;67.60
21425;DHT22;10873;51.132;16.848;2022-09-09T01:05:52;27.70;67.50
21425;DHT22;10873;51.132;16.848;2022-09-09T01:08:34;27.70;67.40
21425;DHT22;10873;51.132;16.848;2022-09-09T01:11:01;27.70;67.30
21425;DHT22;10873;51.132;16.848;2022-09-09T01:13:29;27.70;67.30
21425;DHT22;10873;51.132;16.848;2022-09-09T01:15:57;27.70;67.30
21425;DHT22;10873;51.132;16.848;2022-09-09T01:18:28;27.70;67.20
21425;DHT22;10873;51.132;16.848;2022-09-09T01:21:02;27.60;67.10
21425;DHT22;10873;51.132;16.848;2022-09-09T01:23:43;27.60;67.10
21425;DHT22;10873;51.132;16.848;2022-09-09T01:26:23;27.70;67.10
21425;DHT22;10873;51.132;16.848;2022-09-09T01:28:51;27.60;67.00
21425;DHT22;10873;51.132;16.848;2022-09-09T01:31:25;27.60;66.90
21425;DHT22;10873;51.132;16.848;2022-09-09T01:33:53;27.60;66.90
21425;DHT22;10873;51.132;16.848;2022-09-09T01:36:26;27.60;66.80
21425;DHT22;10873;51.132;16.848;2022-09-09T01:38:54;27.60;66.80
21425;DHT22;10873;51.132;16.848;2022-09-09T01:41:21;27.60;66.80
21425;DHT22;10873;51.132;16.848;2022-09-09T01:43:47;27.60;66.70
21425;DHT22;10873;51.132;16.848;2022-09-09T01:46:15;27.60;66.70
21425;DHT22;10873;51.132;16.848;2022-09-09T01:48:42;27.60;66.70
21425;DHT22;10873;51.132;16.848;2022-09-09T01:51:09;27.60;66.60
21425;DHT22;10873;51.132;16.848;2022-09-09T01:53:39;27.60;66.50
21425;DHT22;10873;51.132;16.848;2022-09-09T01:56:19;27.60;66.50
21425;DHT22;10873;51.132;16.848;2022-09-09T01:59:02;27.60;66.50
21425;DHT22;10873;51.132;16.848;2022-09-09T02:01:40;27.50;66.40
21425;DHT22;10873;51.132;16.848;2022-09-09T02:04:18;27.60;66.40
21425;DHT22;10873;51.132;16.848;2022-09-09T02:06:48;27.50;66.30
21425;DHT22;10873;51.132;16.848;2022-09-09T02:09:18;27.50;66.30
21425;DHT22;10873;51.132;16.848;2022-09-09T02:11:47;27.50;66.30
21425;DHT22;10873;51.132;16.848;2022-09-09T02:14:19;27.50;66.20
21425;DHT22;10873;51.132;16.848;2022-09-09T02:16:50;27.50;66.20
21425;DHT22;10873;51.132;16.848;2022-09-09T02:19:22;27.50;66.10
21425;DHT22;10873;51.132;16.848;2022-09-09T02:21:53;27.50;66.10
21425;DHT22;10873;51.132;16.848;2022-09-09T02:24:21;27.50;66.10
21425;DHT22;10873;51.132;16.848;2022-09-09T02:26:50;27.50;66.10
21425;DHT22;10873;51.132;16.848;2022-09-09T02:29:22;27.50;66.00
21425;DHT22;10873;51.132;16.848;2022-09-09T02:34:25;27.50;66.00
21425;DHT22;10873;51.132;16.848;2022-09-09T02:36:54;27.40;65.90
21425;DHT22;10873;51.132;16.848;2022-09-09T02:51:27;27.50;66.20
21425;DHT22;10873;51.132;16.848;2022-09-09T02:54:02;27.50;66.00
21425;DHT22;10873;51.132;16.848;2022-09-09T02:56:31;27.50;65.90
21425;DHT22;10873;51.132;16.848;2022-09-09T02:59:02;27.50;65.90
21425;DHT22;10873;51.132;16.848;2022-09-09T03:01:28;27.50;65.80
21425;DHT22;10873;51.132;16.848;2022-09-09T03:03:54;27.50;65.80
21425;DHT22;10873;51.132;16.848;2022-09-09T03:06:22;27.50;65.80
21425;DHT22;10873;51.132;16.848;2022-09-09T03:08:48;27.50;65.80
21425;DHT22;10873;51.132;16.848;2022-09-09T03:11:15;27.50;65.80
21425;DHT22;10873;51.132;16.848;2022-09-09T03:13:42;27.50;65.80
21425;DHT22;10873;51.132;16.848;2022-09-09T03:16:08;27.50;65.80
21425;DHT22;10873;51.132;16.848;2022-09-09T03:18:34;27.50;65.80
21425;DHT22;10873;51.132;16.848;2022-09-09T03:21:00;27.50;65.80
21425;DHT22;10873;51.132;16.848;2022-09-09T03:23:27;27.50;65.70
21425;DHT22;10873;51.132;16.848;2022-09-09T03:25:53;27.40;65.70
21425;DHT22;10873;51.132;16.848;2022-09-09T03:28:23;27.40;65.70
21425;DHT22;10873;51.132;16.848;2022-09-09T03:30:50;27.40;65.70
21425;DHT22;10873;51.132;16.848;2022-09-09T03:33:16;27.40;65.80
21425;DHT22;10873;51.132;16.848;2022-09-09T03:35:45;27.40;65.70
21425;DHT22;10873;51.132;16.848;2022-09-09T03:38:14;27.40;65.70
21425;DHT22;10873;51.132;16.848;2022-09-09T03:40:48;27.40;65.60
21425;DHT22;10873;51.132;16.848;2022-09-09T03:43:15;27.40;65.60
21425;DHT22;10873;51.132;16.848;2022-09-09T03:45:45;27.40;65.50
21425;DHT22;10873;51.132;16.848;2022-09-09T03:48:12;27.40;65.50
21425;DHT22;10873;51.132;16.848;2022-09-09T03:50:38;27.40;65.50
21425;DHT22;10873;51.132;16.848;2022-09-09T03:53:04;27.40;65.40
21425;DHT22;10873;51.132;16.848;2022-09-09T03:55:31;27.40;65.40
21425;DHT22;10873;51.132;16.848;2022-09-09T03:57:59;27.30;65.30
21425;DHT22;10873;51.132;16.848;2022-09-09T04:00:26;27.30;65.30
21425;DHT22;10873;51.132;16.848;2022-09-09T04:02:52;27.30;65.30
21425;DHT22;10873;51.132;16.848;2022-09-09T04:05:21;27.30;65.30
21425;DHT22;10873;51.132;16.848;2022-09-09T04:07:47;27.30;65.30
21425;DHT22;10873;51.132;16.848;2022-09-09T04:10:13;27.30;65.30
21425;DHT22;10873;51.132;16.848;2022-09-09T04:12:41;27.30;65.30
21425;DHT22;10873;51.132;16.848;2022-09-09T04:15:09;27.30;65.30
21425;DHT22;10873;51.132;16.848;2022-09-09T04:17:36;27.30;65.30
21425;DHT22;10873;51.132;16.848;2022-09-09T04:20:02;27.30;65.30
21425;DHT22;10873;51.132;16.848;2022-09-09T04:22:29;27.30;65.20
21425;DHT22;10873;51.132;16.848;2022-09-09T04:24:55;27.30;65.00
21425;DHT22;10873;51.132;16.848;2022-09-09T04:27:21;27.30;65.00
21425;DHT22;10873;51.132;16.848;2022-09-09T04:29:47;27.30;65.00
21425;DHT22;10873;51.132;16.848;2022-09-09T04:32:15;27.30;65.00
21425;DHT22;10873;51.132;16.848;2022-09-09T04:34:41;27.20;64.90
21425;DHT22;10873;51.132;16.848;2022-09-09T04:37:07;27.30;65.00
21425;DHT22;10873;51.132;16.848;2022-09-09T04:39:33;27.30;65.10
21425;DHT22;10873;51.132;16.848;2022-09-09T04:41:59;27.30;65.00
21425;DHT22;10873;51.132;16.848;2022-09-09T04:44:25;27.30;65.10
21425;DHT22;10873;51.132;16.848;2022-09-09T04:46:51;27.30;65.00
21425;DHT22;10873;51.132;16.848;2022-09-09T04:49:19;27.30;65.10
21425;DHT22;10873;51.132;16.848;2022-09-09T04:51:45;27.20;64.90
21425;DHT22;10873;51.132;16.848;2022-09-09T04:54:12;27.30;65.00
21425;DHT22;10873;51.132;16.848;2022-09-09T04:56:38;27.30;64.90
21425;DHT22;10873;51.132;16.848;2022-09-09T04:59:04;27.30;65.10
21425;DHT22;10873;51.132;16.848;2022-09-09T05:01:31;27.30;65.10
21425;DHT22;10873;51.132;16.848;2022-09-09T05:03:58;27.30;65.10
21425;DHT22;10873;51.132;16.848;2022-09-09T05:06:25;27.30;65.20
21425;DHT22;10873;51.132;16.848;2022-09-09T05:08:51;27.20;65.00
21425;DHT22;10873;51.132;16.848;2022-09-09T05:11:19;27.20;64.20
21425;DHT22;10873;51.132;16.848;2022-09-09T05:13:46;27.20;63.80
21425;DHT22;10873;51.132;16.848;2022-09-09T05:16:13;27.20;63.10
21425;DHT22;10873;51.132;16.848;2022-09-09T05:18:40;27.20;63.10
21425;DHT22;10873;51.132;16.848;2022-09-09T05:21:06;27.10;63.10
21425;DHT22;10873;51.132;16.848;2022-09-09T05:23:34;27.10;63.30
21425;DHT22;10873;51.132;16.848;2022-09-09T05:26:02;27.10;63.40
21425;DHT22;10873;51.132;16.848;2022-09-09T05:28:28;27.10;63.60
21425;DHT22;10873;51.132;16.848;2022-09-09T05:30:59;27.10;63.70
21425;DHT22;10873;51.132;16.848;2022-09-09T05:33:26;27.00;63.70
21425;DHT22;10873;51.132;16.848;2022-09-09T05:35:57;27.00;63.90
21425;DHT22;10873;51.132;16.848;2022-09-09T05:38:23;27.00;64.00
21425;DHT22;10873;51.132;16.848;2022-09-09T05:40:54;27.00;64.10
21425;DHT22;10873;51.132;16.848;2022-09-09T05:43:21;27.00;64.20
21425;DHT22;10873;51.132;16.848;2022-09-09T05:45:57;27.00;64.30
21425;DHT22;10873;51.132;16.848;2022-09-09T05:48:24;27.00;64.30
21425;DHT22;10873;51.132;16.848;2022-09-09T05:50:52;27.00;64.40
21425;DHT22;10873;51.132;16.848;2022-09-09T05:53:19;27.10;64.50
21425;DHT22;10873;51.132;16.848;2022-09-09T05:55:46;27.10;64.50
21425;DHT22;10873;51.132;16.848;2022-09-09T05:58:14;27.20;64.70
21425;DHT22;10873;51.132;16.848;2022-09-09T06:00:42;27.30;64.90
21425;DHT22;10873;51.132;16.848;2022-09-09T06:03:10;27.30;64.90
21425;DHT22;10873;51.132;16.848;2022-09-09T06:05:37;27.30;64.90
21425;DHT22;10873;51.132;16.848;2022-09-09T06:08:03;27.40;65.00
21425;DHT22;10873;51.132;16.848;2022-09-09T06:10:29;27.40;64.90
21425;DHT22;10873;51.132;16.848;2022-09-09T06:12:55;27.40;64.90
21425;DHT22;10873;51.132;16.848;2022-09-09T06:15:22;27.40;64.90
21425;DHT22;10873;51.132;16.848;2022-09-09T06:17:54;27.40;64.80
21425;DHT22;10873;51.132;16.848;2022-09-09T06:20:21;27.50;65.00
21425;DHT22;10873;51.132;16.848;2022-09-09T06:22:47;27.50;64.90
21425;DHT22;10873;51.132;16.848;2022-09-09T06:25:15;27.50;64.90
21425;DHT22;10873;51.132;16.848;2022-09-09T06:27:41;27.50;64.90
21425;DHT22;10873;51.132;16.848;2022-09-09T06:30:08;27.60;64.90
21425;DHT22;10873;51.132;16.848;2022-09-09T06:32:37;27.60;65.10
21425;DHT22;10873;51.132;16.848;2022-09-09T06:35:04;27.70;65.20
21425;DHT22;10873;51.132;16.848;2022-09-09T06:37:30;27.70;65.00
21425;DHT22;10873;51.132;16.848;2022-09-09T06:39:57;27.80;65.00
21425;DHT22;10873;51.132;16.848;2022-09-09T06:42:23;27.80;65.00
21425;DHT22;10873;51.132;16.848;2022-09-09T06:44:49;27.80;65.00
21425;DHT22;10873;51.132;16.848;2022-09-09T06:47:15;27.80;65.00
21425;DHT22;10873;51.132;16.848;2022-09-09T06:49:42;27.80;65.00
21425;DHT22;10873;51.132;16.848;2022-09-09T06:52:09;27.90;65.20
21425;DHT22;10873;51.132;16.848;2022-09-09T06:54:35;27.90;65.20
21425;DHT22;10873;51.132;16.848;2022-09-09T06:57:03;27.90;65.30
21425;DHT22;10873;51.132;16.848;2022-09-09T06:59:29;27.90;65.30
21425;DHT22;10873;51.132;16.848;2022-09-09T07:01:56;27.90;65.40
21425;DHT22;10873;51.132;16.848;2022-09-09T07:04:23;27.90;65.50
21425;DHT22;10873;51.132;16.848;2022-09-09T07:06:52;27.90;65.50
21425;DHT22;10873;51.132;16.848;2022-09-09T07:09:18;27.90;65.50
21425;DHT22;10873;51.132;16.848;2022-09-09T07:11:46;27.90;65.60
21425;DHT22;10873;51.132;16.848;2022-09-09T07:14:13;27.90;66.50
21425;DHT22;10873;51.132;16.848;2022-09-09T07:16:40;27.80;65.70
21425;DHT22;10873;51.132;16.848;2022-09-09T07:19:08;27.90;65.80
21425;DHT22;10873;51.132;16.848;2022-09-09T07:21:34;27.80;65.80
21425;DHT22;10873;51.132;16.848;2022-09-09T07:24:02;27.80;65.80
21425;DHT22;10873;51.132;16.848;2022-09-09T07:26:30;27.80;66.70
21425;DHT22;10873;51.132;16.848;2022-09-09T07:28:56;27.80;65.90
21425;DHT22;10873;51.132;16.848;2022-09-09T07:31:25;27.80;66.00
21425;DHT22;10873;51.132;16.848;2022-09-09T07:33:51;27.80;66.00
21425;DHT22;10873;51.132;16.848;2022-09-09T07:36:19;27.80;66.20
21425;DHT22;10873;51.132;16.848;2022-09-09T07:38:51;27.80;66.60
21425;DHT22;10873;51.132;16.848;2022-09-09T07:41:20;27.80;66.70
21425;DHT22;10873;51.132;16.848;2022-09-09T07:43:48;27.80;66.60
21425;DHT22;10873;51.132;16.848;2022-09-09T07:46:16;27.90;66.60
21425;DHT22;10873;51.132;16.848;2022-09-09T07:48:44;27.90;66.50
21425;DHT22;10873;51.132;16.848;2022-09-09T07:51:13;28.00;66.50
21425;DHT22;10873;51.132;16.848;2022-09-09T07:53:43;28.00;66.40
21425;DHT22;10873;51.132;16.848;2022-09-09T07:56:10;28.00;66.30
21425;DHT22;10873;51.132;16.848;2022-09-09T07:58:39;28.10;66.30
21425;DHT22;10873;51.132;16.848;2022-09-09T08:01:10;28.10;66.30
21425;DHT22;10873;51.132;16.848;2022-09-09T08:03:37;28.10;66.30
21425;DHT22;10873;51.132;16.848;2022-09-09T08:06:06;28.10;66.20
21425;DHT22;10873;51.132;16.848;2022-09-09T08:08:36;28.20;66.20
21425;DHT22;10873;51.132;16.848;2022-09-09T08:11:05;28.20;66.10
21425;DHT22;10873;51.132;16.848;2022-09-09T08:13:33;28.20;66.10
21425;DHT22;10873;51.132;16.848;2022-09-09T08:16:09;28.20;66.10
21425;DHT22;10873;51.132;16.848;2022-09-09T08:18:36;28.20;66.00
21425;DHT22;10873;51.132;16.848;2022-09-09T08:21:06;28.20;66.00
21425;DHT22;10873;51.132;16.848;2022-09-09T08:23:34;28.20;65.90
21425;DHT22;10873;51.132;16.848;2022-09-09T08:26:05;28.20;65.90
21425;DHT22;10873;51.132;16.848;2022-09-09T08:28:31;28.20;65.90
21425;DHT22;10873;51.132;16.848;2022-09-09T08:31:06;28.30;65.80
21425;DHT22;10873;51.132;16.848;2022-09-09T08:33:34;28.30;65.80
21425;DHT22;10873;51.132;16.848;2022-09-09T08:36:02;28.30;65.70
21425;DHT22;10873;51.132;16.848;2022-09-09T08:38:28;28.30;65.70
21425;DHT22;10873;51.132;16.848;2022-09-09T08:41:00;28.30;65.70
21425;DHT22;10873;51.132;16.848;2022-09-09T08:43:30;28.30;65.60
21425;DHT22;10873;51.132;16.848;2022-09-09T08:46:03;28.40;65.50
21425;DHT22;10873;51.132;16.848;2022-09-09T08:48:47;28.40;65.40
21425;DHT22;10873;51.132;16.848;2022-09-09T08:51:15;28.40;65.50
21425;DHT22;10873;51.132;16.848;2022-09-09T08:53:43;28.40;65.40
21425;DHT22;10873;51.132;16.848;2022-09-09T08:56:14;28.40;65.30
21425;DHT22;10873;51.132;16.848;2022-09-09T08:58:45;28.40;65.20
21425;DHT22;10873;51.132;16.848;2022-09-09T09:01:43;28.40;65.20
21425;DHT22;10873;51.132;16.848;2022-09-09T09:04:27;28.40;65.20
21425;DHT22;10873;51.132;16.848;2022-09-09T09:07:04;28.40;65.20
21425;DHT22;10873;51.132;16.848;2022-09-09T09:09:41;28.40;65.30
21425;DHT22;10873;51.132;16.848;2022-09-09T09:12:15;28.40;65.40
21425;DHT22;10873;51.132;16.848;2022-09-09T09:14:43;28.40;65.40
21425;DHT22;10873;51.132;16.848;2022-09-09T09:17:13;28.50;65.50
21425;DHT22;10873;51.132;16.848;2022-09-09T09:19:43;28.50;65.30
21425;DHT22;10873;51.132;16.848;2022-09-09T09:22:15;28.50;65.20
21425;DHT22;10873;51.132;16.848;2022-09-09T09:24:48;28.50;65.00
21425;DHT22;10873;51.132;16.848;2022-09-09T09:27:30;28.60;65.00
21425;DHT22;10873;51.132;16.848;2022-09-09T09:29:58;28.60;64.90
21425;DHT22;10873;51.132;16.848;2022-09-09T09:32:28;28.60;65.00
21425;DHT22;10873;51.132;16.848;2022-09-09T09:34:58;28.60;65.10
21425;DHT22;10873;51.132;16.848;2022-09-09T09:37:32;28.60;65.00
21425;DHT22;10873;51.132;16.848;2022-09-09T09:40:09;28.60;65.00
21425;DHT22;10873;51.132;16.848;2022-09-09T09:42:35;28.70;65.30
21425;DHT22;10873;51.132;16.848;2022-09-09T09:45:08;28.70;66.70
21425;DHT22;10873;51.132;16.848;2022-09-09T09:47:36;28.70;66.00
21425;DHT22;10873;51.132;16.848;2022-09-09T09:50:04;28.60;64.70
21425;DHT22;10873;51.132;16.848;2022-09-09T09:52:31;28.60;63.50
21425;DHT22;10873;51.132;16.848;2022-09-09T09:54:59;28.60;63.10
21425;DHT22;10873;51.132;16.848;2022-09-09T09:57:29;28.50;63.20
21425;DHT22;10873;51.132;16.848;2022-09-09T10:00:11;28.50;63.50
21425;DHT22;10873;51.132;16.848;2022-09-09T10:02:40;28.40;63.70
21425;DHT22;10873;51.132;16.848;2022-09-09T10:05:16;28.40;63.90
21425;DHT22;10873;51.132;16.848;2022-09-09T10:07:43;28.40;64.10
21425;DHT22;10873;51.132;16.848;2022-09-09T10:10:15;28.40;64.20
21425;DHT22;10873;51.132;16.848;2022-09-09T10:12:55;28.30;64.30
21425;DHT22;10873;51.132;16.848;2022-09-09T10:15:31;28.30;64.40
21425;DHT22;10873;51.132;16.848;2022-09-09T10:18:15;28.30;64.50
21425;DHT22;10873;51.132;16.848;2022-09-09T10:20:52;28.30;64.70
21425;DHT22;10873;51.132;16.848;2022-09-09T10:23:32;28.30;64.80
21425;DHT22;10873;51.132;16.848;2022-09-09T10:26:19;28.20;64.80
21425;DHT22;10873;51.132;16.848;2022-09-09T10:29:16;28.20;64.90
21425;DHT22;10873;51.132;16.848;2022-09-09T10:31:49;28.20;64.90
21425;DHT22;10873;51.132;16.848;2022-09-09T10:34:45;28.20;64.80
21425;DHT22;10873;51.132;16.848;2022-09-09T10:37:24;28.10;64.60
21425;DHT22;10873;51.132;16.848;2022-09-09T10:39:56;28.10;64.60
21425;DHT22;10873;51.132;16.848;2022-09-09T10:42:31;28.10;64.80
21425;DHT22;10873;51.132;16.848;2022-09-09T10:45:07;28.10;64.90
21425;DHT22;10873;51.132;16.848;2022-09-09T10:47:55;28.10;65.00
21425;DHT22;10873;51.132;16.848;2022-09-09T10:50:47;28.10;65.10
21425;DHT22;10873;51.132;16.848;2022-09-09T10:53:21;28.10;65.20
21425;DHT22;10873;51.132;16.848;2022-09-09T10:55:52;28.10;65.20
21425;DHT22;10873;51.132;16.848;2022-09-09T10:58:24;28.10;65.30
21425;DHT22;10873;51.132;16.848;2022-09-09T11:00:55;28.10;65.40
21425;DHT22;10873;51.132;16.848;2022-09-09T11:03:26;28.10;65.40
21425;DHT22;10873;51.132;16.848;2022-09-09T11:05:57;28.10;65.50
21425;DHT22;10873;51.132;16.848;2022-09-09T11:08:29;28.10;65.70
21425;DHT22;10873;51.132;16.848;2022-09-09T11:11:00;28.10;65.70
21425;DHT22;10873;51.132;16.848;2022-09-09T11:13:40;28.00;65.70
21425;DHT22;10873;51.132;16.848;2022-09-09T11:16:17;28.10;65.60
21425;DHT22;10873;51.132;16.848;2022-09-09T11:18:46;28.10;65.50
21425;DHT22;10873;51.132;16.848;2022-09-09T11:21:18;28.10;65.20
21425;DHT22;10873;51.132;16.848;2022-09-09T11:23:50;28.20;64.30
21425;DHT22;10873;51.132;16.848;2022-09-09T11:26:29;28.20;64.20
21425;DHT22;10873;51.132;16.848;2022-09-09T11:29:08;28.20;64.30
21425;DHT22;10873;51.132;16.848;2022-09-09T11:31:45;28.20;64.20
21425;DHT22;10873;51.132;16.848;2022-09-09T11:34:39;28.20;64.20
21425;DHT22;10873;51.132;16.848;2022-09-09T11:37:21;28.20;64.30
21425;DHT22;10873;51.132;16.848;2022-09-09T11:40:09;28.20;63.30
21425;DHT22;10873;51.132;16.848;2022-09-09T11:42:40;28.20;62.30
21425;DHT22;10873;51.132;16.848;2022-09-09T11:45:22;28.20;62.40
21425;DHT22;10873;51.132;16.848;2022-09-09T11:47:54;28.20;62.30
21425;DHT22;10873;51.132;16.848;2022-09-09T11:50:33;28.20;62.00
21425;DHT22;10873;51.132;16.848;2022-09-09T11:53:14;28.20;62.10
21425;DHT22;10873;51.132;16.848;2022-09-09T11:55:43;28.20;62.50
21425;DHT22;10873;51.132;16.848;2022-09-09T11:58:16;28.20;63.00
21425;DHT22;10873;51.132;16.848;2022-09-09T12:00:45;28.20;63.50
21425;DHT22;10873;51.132;16.848;2022-09-09T12:03:34;28.20;63.60
21425;DHT22;10873;51.132;16.848;2022-09-09T12:06:10;28.20;63.50
21425;DHT22;10873;51.132;16.848;2022-09-09T12:08:37;28.20;63.50
21425;DHT22;10873;51.132;16.848;2022-09-09T12:11:08;28.10;63.50
21425;DHT22;10873;51.132;16.848;2022-09-09T12:13:34;28.10;63.40
21425;DHT22;10873;51.132;16.848;2022-09-09T12:16:01;28.10;63.30
21425;DHT22;10873;51.132;16.848;2022-09-09T12:18:33;28.20;63.30
21425;DHT22;10873;51.132;16.848;2022-09-09T12:21:05;28.20;63.30
21425;DHT22;10873;51.132;16.848;2022-09-09T12:23:41;28.20;63.30
21425;DHT22;10873;51.132;16.848;2022-09-09T12:26:26;28.20;63.30
21425;DHT22;10873;51.132;16.848;2022-09-09T12:29:05;28.20;63.50
21425;DHT22;10873;51.132;16.848;2022-09-09T12:31:39;28.20;63.40
21425;DHT22;10873;51.132;16.848;2022-09-09T12:34:14;28.20;63.40
21425;DHT22;10873;51.132;16.848;2022-09-09T12:36:43;28.20;63.30
21425;DHT22;10873;51.132;16.848;2022-09-09T12:39:18;28.20;63.30
21425;DHT22;10873;51.132;16.848;2022-09-09T12:41:53;28.10;63.40
21425;DHT22;10873;51.132;16.848;2022-09-09T12:44:23;28.10;63.40
21425;DHT22;10873;51.132;16.848;2022-09-09T12:46:51;28.10;63.50
21425;DHT22;10873;51.132;16.848;2022-09-09T12:49:29;28.10;63.50
21425;DHT22;10873;51.132;16.848;2022-09-09T12:52:03;28.10;63.70
21425;DHT22;10873;51.132;16.848;2022-09-09T12:54:32;28.10;63.70
21425;DHT22;10873;51.132;16.848;2022-09-09T12:57:00;28.10;63.70
21425;DHT22;10873;51.132;16.848;2022-09-09T12:59:34;28.10;63.70
21425;DHT22;10873;51.132;16.848;2022-09-09T13:02:01;28.10;63.60
21425;DHT22;10873;51.132;16.848;2022-09-09T13:04:27;28.10;63.70
21425;DHT22;10873;51.132;16.848;2022-09-09T13:06:53;28.10;63.70
21425;DHT22;10873;51.132;16.848;2022-09-09T13:09:21;28.10;63.70
21425;DHT22;10873;51.132;16.848;2022-09-09T13:11:50;28.10;63.80
21425;DHT22;10873;51.132;16.848;2022-09-09T13:14:19;28.10;63.80
21425;DHT22;10873;51.132;16.848;2022-09-09T13:16:55;28.10;63.80
21425;DHT22;10873;51.132;16.848;2022-09-09T13:19:22;28.10;63.70
21425;DHT22;10873;51.132;16.848;2022-09-09T13:21:51;28.10;63.60
21425;DHT22;10873;51.132;16.848;2022-09-09T13:24:36;28.20;63.60
21425;DHT22;10873;51.132;16.848;2022-09-09T13:27:24;28.20;63.50
21425;DHT22;10873;51.132;16.848;2022-09-09T13:29:54;28.20;63.50
21425;DHT22;10873;51.132;16.848;2022-09-09T13:32:24;28.20;63.30
21425;DHT22;10873;51.132;16.848;2022-09-09T13:34:51;28.20;63.30
21425;DHT22;10873;51.132;16.848;2022-09-09T13:37:23;28.30;63.40
21425;DHT22;10873;51.132;16.848;2022-09-09T13:39:53;28.30;63.30
21425;DHT22;10873;51.132;16.848;2022-09-09T13:42:24;28.30;63.40
21425;DHT22;10873;51.132;16.848;2022-09-09T13:44:53;28.30;63.60
21425;DHT22;10873;51.132;16.848;2022-09-09T13:47:26;28.30;63.50
21425;DHT22;10873;51.132;16.848;2022-09-09T13:49:53;28.30;63.50
21425;DHT22;10873;51.132;16.848;2022-09-09T13:52:20;28.30;64.30
21425;DHT22;10873;51.132;16.848;2022-09-09T13:54:48;28.30;63.50
21425;DHT22;10873;51.132;16.848;2022-09-09T13:57:16;28.30;63.50
21425;DHT22;10873;51.132;16.848;2022-09-09T13:59:44;28.30;63.60
21425;DHT22;10873;51.132;16.848;2022-09-09T14:02:11;28.30;63.60
21425;DHT22;10873;51.132;16.848;2022-09-09T14:04:38;28.30;63.50
21425;DHT22;10873;51.132;16.848;2022-09-09T14:07:09;28.30;63.50
21425;DHT22;10873;51.132;16.848;2022-09-09T14:09:37;28.30;63.30
21425;DHT22;10873;51.132;16.848;2022-09-09T14:12:03;28.30;63.10
21425;DHT22;10873;51.132;16.848;2022-09-09T14:14:30;28.40;63.10
21425;DHT22;10873;51.132;16.848;2022-09-09T14:16:56;28.40;63.00
21425;DHT22;10873;51.132;16.848;2022-09-09T14:19:24;28.40;62.90
21425;DHT22;10873;51.132;16.848;2022-09-09T14:21:50;28.40;62.90
21425;DHT22;10873;51.132;16.848;2022-09-09T14:24:16;28.40;62.80
21425;DHT22;10873;51.132;16.848;2022-09-09T14:26:42;28.40;62.90
21425;DHT22;10873;51.132;16.848;2022-09-09T14:29:08;28.40;62.90
21425;DHT22;10873;51.132;16.848;2022-09-09T14:31:34;28.40;62.90
21425;DHT22;10873;51.132;16.848;2022-09-09T14:34:00;28.50;62.90
21425;DHT22;10873;51.132;16.848;2022-09-09T14:36:28;28.50;62.80
21425;DHT22;10873;51.132;16.848;2022-09-09T14:38:54;28.50;62.90
21425;DHT22;10873;51.132;16.848;2022-09-09T14:41:20;28.50;62.90
21425;DHT22;10873;51.132;16.848;2022-09-09T14:43:48;28.50;62.90
21425;DHT22;10873;51.132;16.848;2022-09-09T14:46:18;28.50;62.80
21425;DHT22;10873;51.132;16.848;2022-09-09T14:48:45;28.50;62.90
21425;DHT22;10873;51.132;16.848;2022-09-09T14:51:16;28.50;63.00
21425;DHT22;10873;51.132;16.848;2022-09-09T14:53:45;28.50;63.00
21425;DHT22;10873;51.132;16.848;2022-09-09T14:56:13;28.50;63.00
21425;DHT22;10873;51.132;16.848;2022-09-09T14:58:39;28.50;62.40
21425;DHT22;10873;51.132;16.848;2022-09-09T15:01:07;28.50;63.10
21425;DHT22;10873;51.132;16.848;2022-09-09T15:03:35;28.50;63.20
21425;DHT22;10873;51.132;16.848;2022-09-09T15:06:07;28.50;63.20
21425;DHT22;10873;51.132;16.848;2022-09-09T15:08:34;28.50;63.10
21425;DHT22;10873;51.132;16.848;2022-09-09T15:11:04;28.50;63.10
21425;DHT22;10873;51.132;16.848;2022-09-09T15:13:30;28.50;63.00
21425;DHT22;10873;51.132;16.848;2022-09-09T15:16:03;28.50;63.00
21425;DHT22;10873;51.132;16.848;2022-09-09T15:18:30;28.50;63.20
21425;DHT22;10873;51.132;16.848;2022-09-09T15:20:56;28.50;63.60
21425;DHT22;10873;51.132;16.848;2022-09-09T15:23:22;28.50;63.50
21425;DHT22;10873;51.132;16.848;2022-09-09T15:25:52;28.50;63.60
21425;DHT22;10873;51.132;16.848;2022-09-09T15:28:19;28.40;63.50
21425;DHT22;10873;51.132;16.848;2022-09-09T15:30:48;28.40;63.60
21425;DHT22;10873;51.132;16.848;2022-09-09T15:33:14;28.40;63.80
21425;DHT22;10873;51.132;16.848;2022-09-09T15:35:40;28.40;63.80
21425;DHT22;10873;51.132;16.848;2022-09-09T15:38:06;28.40;64.00
21425;DHT22;10873;51.132;16.848;2022-09-09T15:40:32;28.40;64.00
21425;DHT22;10873;51.132;16.848;2022-09-09T15:42:58;28.40;64.00
21425;DHT22;10873;51.132;16.848;2022-09-09T15:45:26;28.40;63.90
21425;DHT22;10873;51.132;16.848;2022-09-09T15:47:52;28.50;64.00
21425;DHT22;10873;51.132;16.848;2022-09-09T15:50:19;28.40;64.00